Time;durP1;ratioP1;P1;durP2;ratioP2;P2;SDS_P1;SDS_P2;PMS_P1;PMS_P2;Temp;Humidity;BMP_temperature;BMP_pressure;BME280_temperature;BME280_humidity;BME280_pressure;Samples;Min_cycle;Max_cycle;Signal;HPM_P1;HPM_P2
2023/03/03 00:00:38;;;;;;;;;;;1.20;99.90;;;;;;4865235;29;19928;-63
2023/03/03 00:03:11;;;;;;;;;;;1.20;99.90;;;;;;4878159;29;20377;-63
2023/03/03 00:05:42;;;;;;;;;;;1.30;99.90;;;;;;4869173;29;19936;-63
2023/03/03 00:08:14;;;;;;;;;;;1.30;99.90;;;;;;4878054;29;20402;-63
2023/03/03 00:10:46;;;;;;;;;;;1.40;99.90;;;;;;4869231;29;19984;-64
2023/03/03 00:13:19;;;;;;;;;;;1.40;99.90;;;;;;4877011;29;19927;-63
2023/03/03 00:15:51;;;;;;;;;;;1.30;99.90;;;;;;4875318;29;19980;-63
2023/03/03 00:18:27;;;;;;;;;;;1.40;99.90;;;;;;4868216;29;19939;-64
2023/03/03 00:21:00;;;;;;;;;;;1.40;99.90;;;;;;4871001;29;20011;-63
2023/03/03 00:23:37;;;;;;;;;;;1.40;99.90;;;;;;4879829;29;20378;-68
2023/03/03 00:26:15;;;;;;;;;;;1.40;99.90;;;;;;4869990;29;19934;-63
2023/03/03 00:28:47;;;;;;;;;;;1.40;99.90;;;;;;4872095;29;19935;-63
2023/03/03 00:31:21;;;;;;;;;;;1.40;99.90;;;;;;4874727;29;19984;-63
2023/03/03 00:33:54;;;;;;;;;;;1.40;99.90;;;;;;4870641;29;19928;-63
2023/03/03 00:36:33;;;;;;;;;;;1.40;99.90;;;;;;4872046;29;20412;-63
2023/03/03 00:39:20;;;;;;;;;;;1.40;99.90;;;;;;4867501;29;20383;-62
2023/03/03 00:41:52;;;;;;;;;;;1.40;99.90;;;;;;4867777;29;20416;-63
2023/03/03 00:44:33;;;;;;;;;;;1.40;99.90;;;;;;4875185;29;19963;-63
2023/03/03 00:47:26;;;;;;;;;;;1.40;99.90;;;;;;4875114;29;19928;-62
2023/03/03 00:50:10;;;;;;;;;;;1.40;99.90;;;;;;4871519;29;19935;-63
2023/03/03 00:52:51;;;;;;;;;;;1.40;99.90;;;;;;4872565;29;19938;-62
2023/03/03 00:55:23;;;;;;;;;;;1.40;99.90;;;;;;4876208;29;19965;-63
2023/03/03 00:57:49;;;;;;;;;;;1.40;99.90;;;;;;4876611;29;19935;-63
2023/03/03 01:00:25;;;;;;;;;;;1.40;99.90;;;;;;4875725;29;19928;-63
2023/03/03 01:02:52;;;;;;;;;;;1.40;99.90;;;;;;4875065;29;19934;-63
2023/03/03 01:05:24;;;;;;;;;;;1.40;99.90;;;;;;4871430;29;20133;-63
2023/03/03 01:07:55;;;;;;;;;;;1.30;99.90;;;;;;4867417;29;19932;-63
2023/03/03 01:10:29;;;;;;;;;;;1.30;99.90;;;;;;4855678;29;19935;-63
2023/03/03 01:13:01;;;;;;;;;;;1.20;99.90;;;;;;4875219;29;19936;-63
2023/03/03 01:15:28;;;;;;;;;;;1.20;99.90;;;;;;4876618;29;19928;-63
2023/03/03 01:18:00;;;;;;;;;;;1.20;99.90;;;;;;4868551;29;20452;-63
2023/03/03 01:20:31;;;;;;;;;;;1.10;99.90;;;;;;4875687;29;19965;-63
2023/03/03 01:23:04;;;;;;;;;;;1.10;99.90;;;;;;4869401;29;19951;-63
2023/03/03 01:25:31;;;;;;;;;;;1.10;99.90;;;;;;4866436;29;20375;-63
2023/03/03 01:28:04;;;;;;;;;;;1.00;99.90;;;;;;4869126;29;19928;-63
2023/03/03 01:30:36;;;;;;;;;;;1.00;99.90;;;;;;4865542;29;19928;-63
2023/03/03 01:33:08;;;;;;;;;;;1.00;99.90;;;;;;4862583;29;19936;-63
2023/03/03 01:35:44;;;;;;;;;;;1.00;99.90;;;;;;4875082;29;19928;-63
2023/03/03 01:38:11;;;;;;;;;;;1.00;99.90;;;;;;4876517;29;19954;-64
2023/03/03 01:40:50;;;;;;;;;;;0.90;99.90;;;;;;4884626;29;19932;-63
2023/03/03 01:43:22;;;;;;;;;;;0.90;99.90;;;;;;4880597;29;19928;-63
2023/03/03 01:45:56;;;;;;;;;;;0.80;99.90;;;;;;4867458;29;19936;-63
2023/03/03 01:48:31;;;;;;;;;;;0.80;99.90;;;;;;4874358;29;19928;-63
2023/03/03 01:51:00;;;;;;;;;;;0.80;99.90;;;;;;4857529;29;20361;-63
2023/03/03 01:53:32;;;;;;;;;;;0.80;99.90;;;;;;4880211;29;19932;-63
2023/03/03 01:56:05;;;;;;;;;;;0.80;99.90;;;;;;4874690;29;19928;-63
2023/03/03 01:58:40;;;;;;;;;;;0.80;99.90;;;;;;4874805;29;19928;-63
2023/03/03 02:01:17;;;;;;;;;;;0.80;99.90;;;;;;4875519;29;19984;-63
2023/03/03 02:03:50;;;;;;;;;;;0.80;99.90;;;;;;4865621;29;20429;-63
2023/03/03 02:06:25;;;;;;;;;;;0.80;99.90;;;;;;4863434;29;19928;-63
2023/03/03 02:09:05;;;;;;;;;;;0.80;99.90;;;;;;4873207;29;19928;-63
2023/03/03 02:11:37;;;;;;;;;;;0.80;99.90;;;;;;4850852;29;19939;-62
2023/03/03 02:14:10;;;;;;;;;;;0.80;99.90;;;;;;4878632;29;19932;-63
2023/03/03 02:16:42;;;;;;;;;;;0.80;99.90;;;;;;4866820;29;19928;-63
2023/03/03 02:19:22;;;;;;;;;;;0.80;99.90;;;;;;4879378;29;19929;-63
2023/03/03 02:21:54;;;;;;;;;;;0.80;99.90;;;;;;4857526;29;19940;-63
2023/03/03 02:24:32;;;;;;;;;;;0.80;99.90;;;;;;4876287;29;19927;-63
2023/03/03 02:27:04;;;;;;;;;;;0.60;99.90;;;;;;4869284;29;19932;-63
2023/03/03 02:29:36;;;;;;;;;;;0.60;99.90;;;;;;4878121;29;20359;-63
2023/03/03 02:32:09;;;;;;;;;;;0.60;99.90;;;;;;4877645;29;19936;-63
2023/03/03 02:34:48;;;;;;;;;;;0.60;99.90;;;;;;4864554;29;20422;-63
2023/03/03 02:37:14;;;;;;;;;;;0.60;99.90;;;;;;4874432;29;19932;-63
2023/03/03 02:39:46;;;;;;;;;;;0.60;99.90;;;;;;4876086;29;19928;-63
2023/03/03 02:42:18;;;;;;;;;;;0.70;99.90;;;;;;4879309;29;19976;-63
2023/03/03 02:44:53;;;;;;;;;;;0.70;99.90;;;;;;4872520;29;19928;-63
2023/03/03 02:47:20;;;;;;;;;;;0.60;99.90;;;;;;4879798;29;20304;-63
2023/03/03 02:49:52;;;;;;;;;;;0.60;99.90;;;;;;4877156;29;20059;-63
2023/03/03 02:52:23;;;;;;;;;;;0.60;99.90;;;;;;4878947;29;20415;-63
2023/03/03 02:54:55;;;;;;;;;;;0.70;99.90;;;;;;4878312;29;20531;-63
2023/03/03 02:57:27;;;;;;;;;;;0.70;99.90;;;;;;4876516;29;19932;-64
2023/03/03 02:59:59;;;;;;;;;;;0.70;99.90;;;;;;4885265;29;19939;-63
2023/03/03 03:02:32;;;;;;;;;;;0.70;99.90;;;;;;4858736;29;20361;-63
2023/03/03 03:04:59;;;;;;;;;;;0.70;99.90;;;;;;4871995;29;19932;-62
2023/03/03 03:07:31;;;;;;;;;;;0.70;99.90;;;;;;4877787;29;19935;-63
2023/03/03 03:10:03;;;;;;;;;;;0.70;99.90;;;;;;4872043;29;20449;-63
2023/03/03 03:12:37;;;;;;;;;;;0.70;99.90;;;;;;4875783;29;20394;-63
2023/03/03 03:15:10;;;;;;;;;;;0.70;99.90;;;;;;4876700;29;19928;-63
2023/03/03 03:17:42;;;;;;;;;;;0.70;99.90;;;;;;4858847;29;20355;-63
2023/03/03 03:20:14;;;;;;;;;;;0.70;99.90;;;;;;4875822;29;19984;-63
2023/03/03 03:22:46;;;;;;;;;;;0.70;99.90;;;;;;4869662;29;19967;-63
2023/03/03 03:25:18;;;;;;;;;;;0.70;99.90;;;;;;4877678;29;19936;-63
2023/03/03 03:27:50;;;;;;;;;;;0.70;99.90;;;;;;4874808;29;19928;-63
2023/03/03 03:30:22;;;;;;;;;;;0.70;99.90;;;;;;4862617;29;20389;-64
2023/03/03 03:32:53;;;;;;;;;;;0.80;99.90;;;;;;4874970;29;19928;-63
2023/03/03 03:35:26;;;;;;;;;;;0.80;99.90;;;;;;4861939;29;19928;-63
2023/03/03 03:37:58;;;;;;;;;;;0.80;99.90;;;;;;4876620;29;19935;-63
2023/03/03 03:40:30;;;;;;;;;;;0.90;99.90;;;;;;4863706;29;19971;-63
2023/03/03 03:43:01;;;;;;;;;;;0.90;99.90;;;;;;4863378;29;19939;-63
2023/03/03 03:45:33;;;;;;;;;;;0.90;99.90;;;;;;4864575;29;19936;-63
2023/03/03 03:48:06;;;;;;;;;;;0.90;99.90;;;;;;4870273;29;19935;-63
2023/03/03 03:50:38;;;;;;;;;;;0.90;99.90;;;;;;4876623;29;20026;-63
2023/03/03 03:53:06;;;;;;;;;;;1.00;99.90;;;;;;4876734;29;20023;-63
2023/03/03 03:55:38;;;;;;;;;;;1.00;99.90;;;;;;4877357;29;19932;-64
2023/03/03 03:58:11;;;;;;;;;;;1.10;99.90;;;;;;4876119;29;20015;-63
2023/03/03 04:00:39;;;;;;;;;;;1.10;99.90;;;;;;4867147;29;20006;-63
2023/03/03 04:03:13;;;;;;;;;;;1.10;99.90;;;;;;4876047;29;20120;-63
2023/03/03 04:05:46;;;;;;;;;;;1.10;99.90;;;;;;4864916;29;19986;-63
2023/03/03 04:08:18;;;;;;;;;;;1.10;99.90;;;;;;4861311;29;19939;-63
2023/03/03 04:10:50;;;;;;;;;;;1.00;99.90;;;;;;4869135;29;20315;-63
2023/03/03 04:13:23;;;;;;;;;;;1.00;99.90;;;;;;4877383;29;19939;-63
2023/03/03 04:15:54;;;;;;;;;;;0.90;99.90;;;;;;4870963;29;19935;-63
2023/03/03 04:18:26;;;;;;;;;;;0.90;99.90;;;;;;4877378;29;19935;-63
2023/03/03 04:20:58;;;;;;;;;;;0.90;99.90;;;;;;4874857;29;19928;-63
2023/03/03 04:23:31;;;;;;;;;;;0.80;99.90;;;;;;4867730;29;19976;-63
2023/03/03 04:25:59;;;;;;;;;;;0.90;99.90;;;;;;4875439;29;19935;-63
2023/03/03 04:28:31;;;;;;;;;;;0.80;99.90;;;;;;4861153;29;20409;-63
2023/03/03 04:31:03;;;;;;;;;;;0.90;99.90;;;;;;4884520;29;20013;-63
2023/03/03 04:33:35;;;;;;;;;;;0.80;99.90;;;;;;4871552;29;19927;-63
2023/03/03 04:36:07;;;;;;;;;;;0.80;99.90;;;;;;4876018;29;19939;-63
2023/03/03 04:38:39;;;;;;;;;;;0.80;99.90;;;;;;4875970;29;19927;-63
2023/03/03 04:41:06;;;;;;;;;;;0.80;99.90;;;;;;4876020;29;19932;-63
2023/03/03 04:43:38;;;;;;;;;;;0.90;99.90;;;;;;4874688;29;19928;-63
2023/03/03 04:46:11;;;;;;;;;;;0.80;99.90;;;;;;4859155;29;19963;-63
2023/03/03 04:48:43;;;;;;;;;;;0.90;99.90;;;;;;4874868;29;19935;-63
2023/03/03 04:51:17;;;;;;;;;;;0.90;99.90;;;;;;4875729;29;19932;-63
2023/03/03 04:53:49;;;;;;;;;;;0.90;99.90;;;;;;4871697;29;19928;-63
2023/03/03 04:56:21;;;;;;;;;;;0.90;99.90;;;;;;4873594;29;19932;-63
2023/03/03 04:58:53;;;;;;;;;;;0.90;99.90;;;;;;4884669;29;20416;-63
2023/03/03 05:01:25;;;;;;;;;;;1.00;99.90;;;;;;4860750;29;19963;-63
2023/03/03 05:03:57;;;;;;;;;;;1.00;99.90;;;;;;4875063;29;19932;-63
2023/03/03 05:06:28;;;;;;;;;;;1.00;99.90;;;;;;4865650;29;20019;-63
2023/03/03 05:09:00;;;;;;;;;;;1.00;99.90;;;;;;4872394;29;19928;-64
2023/03/03 05:11:32;;;;;;;;;;;1.00;99.90;;;;;;4860254;29;19935;-64
2023/03/03 05:14:04;;;;;;;;;;;1.00;99.90;;;;;;4864521;29;20287;-64
2023/03/03 05:16:35;;;;;;;;;;;1.10;99.90;;;;;;4869477;29;19980;-63
2023/03/03 05:19:07;;;;;;;;;;;1.10;99.90;;;;;;4874665;29;21358;-63
2023/03/03 05:21:34;;;;;;;;;;;1.20;99.90;;;;;;4878922;29;19943;-63
2023/03/03 05:24:05;;;;;;;;;;;1.20;99.90;;;;;;4873336;29;19934;-64
2023/03/03 05:26:37;;;;;;;;;;;1.20;99.90;;;;;;4874092;29;20293;-63
2023/03/03 05:29:09;;;;;;;;;;;1.30;99.90;;;;;;4874437;29;19928;-64
2023/03/03 05:31:41;;;;;;;;;;;1.30;99.90;;;;;;4873454;29;19936;-64
2023/03/03 05:34:13;;;;;;;;;;;1.40;99.90;;;;;;4874272;29;19983;-64
2023/03/03 05:36:44;;;;;;;;;;;1.40;99.90;;;;;;4872845;29;19935;-63
2023/03/03 05:39:11;;;;;;;;;;;1.40;99.90;;;;;;4874579;29;19963;-64
2023/03/03 05:41:43;;;;;;;;;;;1.40;99.90;;;;;;4872940;29;19935;-65
2023/03/03 05:44:15;;;;;;;;;;;1.40;99.90;;;;;;4875450;29;19936;-67
2023/03/03 05:46:47;;;;;;;;;;;1.40;99.90;;;;;;4866684;29;19928;-64
2023/03/03 05:49:19;;;;;;;;;;;1.40;99.90;;;;;;4869746;29;20454;-64
2023/03/03 05:51:50;;;;;;;;;;;1.40;99.90;;;;;;4862448;29;19928;-63
2023/03/03 05:54:22;;;;;;;;;;;1.50;99.90;;;;;;4874917;29;19927;-64
2023/03/03 05:56:56;;;;;;;;;;;1.50;99.90;;;;;;4855803;29;19936;-64
2023/03/03 05:59:23;;;;;;;;;;;1.50;99.90;;;;;;4875738;29;19928;-64
2023/03/03 06:01:55;;;;;;;;;;;1.50;99.90;;;;;;4869619;29;19977;-63
2023/03/03 06:04:27;;;;;;;;;;;1.50;99.90;;;;;;4868850;29;20485;-63
2023/03/03 06:06:58;;;;;;;;;;;1.50;99.90;;;;;;4879080;29;19927;-63
2023/03/03 06:09:31;;;;;;;;;;;1.40;99.90;;;;;;4876821;29;20298;-63
2023/03/03 06:11:57;;;;;;;;;;;1.40;99.90;;;;;;4876367;29;19932;-64
2023/03/03 06:14:25;;;;;;;;;;;1.50;99.90;;;;;;4871717;29;19932;-64
2023/03/03 06:16:56;;;;;;;;;;;1.50;99.90;;;;;;4875992;29;20405;-63
2023/03/03 06:19:28;;;;;;;;;;;1.40;99.90;;;;;;4875378;29;19936;-63
2023/03/03 06:21:55;;;;;;;;;;;1.50;99.90;;;;;;4858789;29;19935;-64
2023/03/03 06:24:29;;;;;;;;;;;1.50;99.90;;;;;;4874717;29;19943;-64
2023/03/03 06:27:01;;;;;;;;;;;1.50;99.90;;;;;;4891351;29;19988;-64
2023/03/03 06:29:32;;;;;;;;;;;1.50;99.90;;;;;;4883099;29;19928;-63
2023/03/03 06:32:04;;;;;;;;;;;1.50;99.90;;;;;;4873147;29;19928;-64
2023/03/03 06:34:36;;;;;;;;;;;1.60;99.90;;;;;;4871355;29;19928;-63
2023/03/03 06:37:08;;;;;;;;;;;1.60;99.90;;;;;;4857651;29;19928;-63
2023/03/03 06:39:40;;;;;;;;;;;1.60;99.90;;;;;;4858251;29;19934;-64
2023/03/03 06:42:12;;;;;;;;;;;1.60;99.90;;;;;;4872336;29;19964;-64
2023/03/03 06:44:43;;;;;;;;;;;1.60;99.90;;;;;;4871937;29;19932;-63
2023/03/03 06:47:10;;;;;;;;;;;1.60;99.90;;;;;;4873639;29;19927;-63
2023/03/03 06:49:41;;;;;;;;;;;1.60;99.90;;;;;;4874123;29;20393;-64
2023/03/03 06:52:17;;;;;;;;;;;1.60;99.90;;;;;;4876413;29;19928;-64
2023/03/03 06:54:52;;;;;;;;;;;1.60;99.90;;;;;;4874984;29;19935;-64
2023/03/03 06:57:28;;;;;;;;;;;1.70;99.90;;;;;;4874554;29;20409;-63
2023/03/03 07:00:13;;;;;;;;;;;1.70;99.90;;;;;;4874167;29;19961;-65
2023/03/03 07:02:45;;;;;;;;;;;1.70;99.90;;;;;;4861240;29;19973;-64
2023/03/03 07:05:17;;;;;;;;;;;1.80;99.90;;;;;;4861817;29;20022;-64
2023/03/03 07:07:49;;;;;;;;;;;1.80;99.90;;;;;;4878083;29;19928;-65
2023/03/03 07:10:25;;;;;;;;;;;1.80;99.90;;;;;;4874094;29;19928;-64
2023/03/03 07:13:05;;;;;;;;;;;1.80;99.90;;;;;;4875908;29;20420;-65
2023/03/03 07:15:37;;;;;;;;;;;1.90;99.90;;;;;;4863580;29;19988;-65
2023/03/03 07:18:21;;;;;;;;;;;1.90;99.90;;;;;;4876937;29;19935;-65
2023/03/03 07:20:53;;;;;;;;;;;1.90;99.90;;;;;;4881991;29;19928;-65
2023/03/03 07:23:41;;;;;;;;;;;2.00;99.90;;;;;;4865928;29;19928;-65
2023/03/03 07:26:14;;;;;;;;;;;2.00;99.90;;;;;;4874830;29;19931;-65
2023/03/03 07:28:53;;;;;;;;;;;2.00;99.90;;;;;;4877409;29;19939;-65
2023/03/03 07:31:39;;;;;;;;;;;2.00;99.90;;;;;;4872779;29;19996;-65
2023/03/03 07:34:22;;;;;;;;;;;2.00;99.90;;;;;;4871784;29;20018;-64
2023/03/03 07:37:00;;;;;;;;;;;2.10;99.90;;;;;;4869709;29;19935;-64
2023/03/03 07:39:30;;;;;;;;;;;2.10;99.90;;;;;;4866643;29;19928;-64
2023/03/03 07:42:11;;;;;;;;;;;2.10;99.90;;;;;;4877518;29;20363;-65
2023/03/03 07:44:49;;;;;;;;;;;2.10;99.90;;;;;;4868004;29;19944;-63
2023/03/03 07:47:24;;;;;;;;;;;2.10;99.90;;;;;;4864802;29;19928;-64
2023/03/03 07:49:59;;;;;;;;;;;2.00;99.90;;;;;;4876972;29;19929;-64
2023/03/03 07:52:55;;;;;;;;;;;2.00;99.90;;;;;;4871999;29;19927;-64
2023/03/03 07:55:38;;;;;;;;;;;2.00;99.90;;;;;;4871417;29;20378;-64
2023/03/03 07:58:12;;;;;;;;;;;2.00;99.90;;;;;;4871901;29;19988;-64
2023/03/03 08:00:44;;;;;;;;;;;2.00;99.90;;;;;;4876506;29;19928;-64
2023/03/03 08:03:19;;;;;;;;;;;2.00;99.90;;;;;;4877055;29;20394;-64
2023/03/03 08:05:46;;;;;;;;;;;2.00;99.90;;;;;;4875861;29;20382;-64
2023/03/03 08:08:24;;;;;;;;;;;2.00;99.90;;;;;;4874613;29;19928;-64
2023/03/03 08:10:57;;;;;;;;;;;2.00;99.90;;;;;;4877130;29;19984;-64
2023/03/03 08:13:32;;;;;;;;;;;2.00;99.90;;;;;;4873595;29;19931;-64
2023/03/03 08:16:09;;;;;;;;;;;2.00;99.90;;;;;;4874965;29;19932;-64
2023/03/03 08:18:46;;;;;;;;;;;2.00;99.90;;;;;;4877065;29;19935;-64
2023/03/03 08:21:19;;;;;;;;;;;2.00;99.90;;;;;;4875868;29;19962;-65
2023/03/03 08:23:52;;;;;;;;;;;2.10;99.90;;;;;;4873060;29;20019;-64
2023/03/03 08:26:25;;;;;;;;;;;2.10;99.90;;;;;;4867968;29;19927;-63
2023/03/03 08:28:53;;;;;;;;;;;2.10;99.90;;;;;;4871367;29;19939;-64
2023/03/03 08:31:28;;;;;;;;;;;2.10;99.90;;;;;;4880920;29;19984;-64
2023/03/03 08:34:02;;;;;;;;;;;2.10;99.90;;;;;;4876072;29;19927;-64
2023/03/03 08:36:35;;;;;;;;;;;2.10;99.90;;;;;;4874775;29;19931;-64
2023/03/03 08:39:08;;;;;;;;;;;2.10;99.90;;;;;;4870826;29;19940;-65
2023/03/03 08:41:42;;;;;;;;;;;2.20;99.90;;;;;;4861877;29;20366;-64
2023/03/03 08:44:14;;;;;;;;;;;2.20;99.90;;;;;;4871036;29;19928;-64
2023/03/03 08:46:46;;;;;;;;;;;2.20;99.90;;;;;;4875090;29;19932;-64
2023/03/03 08:49:18;;;;;;;;;;;2.20;99.90;;;;;;4865605;29;19936;-64
2023/03/03 08:51:51;;;;;;;;;;;2.20;99.90;;;;;;4875524;29;19928;-64
2023/03/03 08:54:23;;;;;;;;;;;2.30;99.90;;;;;;4875387;29;20293;-64
2023/03/03 08:56:55;;;;;;;;;;;2.30;99.90;;;;;;4876255;29;19929;-64
2023/03/03 08:59:27;;;;;;;;;;;2.40;99.90;;;;;;4873049;29;19939;-64
2023/03/03 09:01:59;;;;;;;;;;;2.40;99.90;;;;;;4870638;29;19928;-64
2023/03/03 09:04:31;;;;;;;;;;;2.50;99.90;;;;;;4870270;29;19959;-64
2023/03/03 09:07:03;;;;;;;;;;;2.50;99.90;;;;;;4869659;29;19984;-63
2023/03/03 09:09:36;;;;;;;;;;;2.60;99.90;;;;;;4883015;29;19938;-64
2023/03/03 09:12:14;;;;;;;;;;;2.60;99.90;;;;;;4876275;29;20597;-64
2023/03/03 09:14:46;;;;;;;;;;;2.60;99.90;;;;;;4868002;29;19935;-65
2023/03/03 09:17:19;;;;;;;;;;;2.70;99.90;;;;;;4875496;29;19934;-63
2023/03/03 09:19:55;;;;;;;;;;;2.80;99.90;;;;;;4866097;29;19927;-64
2023/03/03 09:22:24;;;;;;;;;;;2.90;99.90;;;;;;4873107;29;19936;-63
2023/03/03 09:24:57;;;;;;;;;;;3.00;99.90;;;;;;4874092;29;19927;-64
2023/03/03 09:27:28;;;;;;;;;;;3.10;99.90;;;;;;4868789;29;19927;-64
2023/03/03 09:30:11;;;;;;;;;;;3.20;99.90;;;;;;4883019;29;19955;-63
2023/03/03 09:32:43;;;;;;;;;;;3.20;99.90;;;;;;4880335;29;20034;-63
2023/03/03 09:35:35;;;;;;;;;;;3.40;99.90;;;;;;4858461;29;19975;-64
2023/03/03 09:38:27;;;;;;;;;;;3.40;99.90;;;;;;4872827;29;19936;-64
2023/03/03 09:41:17;;;;;;;;;;;3.50;99.90;;;;;;4867470;29;19934;-65
2023/03/03 09:43:49;;;;;;;;;;;3.70;99.90;;;;;;4875963;29;19934;-64
2023/03/03 09:46:28;;;;;;;;;;;3.90;99.90;;;;;;4857702;29;19928;-64
2023/03/03 09:49:17;;;;;;;;;;;4.00;99.90;;;;;;4873319;29;20390;-64
2023/03/03 09:52:02;;;;;;;;;;;4.10;99.90;;;;;;4871188;29;19935;-64
2023/03/03 09:54:34;;;;;;;;;;;4.10;99.90;;;;;;4872404;29;19984;-64
2023/03/03 09:57:06;;;;;;;;;;;4.10;99.90;;;;;;4875415;29;20324;-64
2023/03/03 09:59:56;;;;;;;;;;;4.20;99.90;;;;;;4875702;29;20420;-64
2023/03/03 10:02:42;;;;;;;;;;;4.30;99.90;;;;;;4869063;29;19943;-64
2023/03/03 10:05:21;;;;;;;;;;;4.50;99.90;;;;;;4869666;29;19984;-64
2023/03/03 10:08:02;;;;;;;;;;;4.50;99.90;;;;;;4873434;29;20019;-64
2023/03/03 10:11:09;;;;;;;;;;;4.60;99.90;;;;;;4875242;29;20346;-64
2023/03/03 10:13:41;;;;;;;;;;;4.60;99.90;;;;;;4853251;29;19929;-63
2023/03/03 10:16:31;;;;;;;;;;;4.80;99.90;;;;;;4864401;29;20286;-63
2023/03/03 10:19:20;;;;;;;;;;;4.90;99.90;;;;;;4880053;29;19931;-64
2023/03/03 10:22:05;;;;;;;;;;;5.10;99.90;;;;;;4869095;29;19935;-63
2023/03/03 10:24:43;;;;;;;;;;;5.10;99.90;;;;;;4863921;29;19931;-64
2023/03/03 10:27:21;;;;;;;;;;;5.10;99.90;;;;;;4862777;29;20079;-64
2023/03/03 10:29:52;;;;;;;;;;;5.10;99.90;;;;;;4870911;29;19935;-64
2023/03/03 10:32:33;;;;;;;;;;;5.20;99.90;;;;;;4885565;29;19989;-64
2023/03/03 10:35:11;;;;;;;;;;;5.30;99.90;;;;;;4874536;29;19976;-63
2023/03/03 10:37:43;;;;;;;;;;;5.40;99.90;;;;;;4874270;29;19932;-64
2023/03/03 10:40:28;;;;;;;;;;;5.50;99.90;;;;;;4867823;29;20522;-64
2023/03/03 10:43:04;;;;;;;;;;;5.50;99.90;;;;;;4877507;29;19936;-64
2023/03/03 10:45:55;;;;;;;;;;;5.60;99.90;;;;;;4863050;29;19932;-64
2023/03/03 10:48:46;;;;;;;;;;;5.60;99.90;;;;;;4876202;29;19928;-63
2023/03/03 10:51:50;;;;;;;;;;;5.70;99.90;;;;;;4866670;29;19935;-63
2023/03/03 10:54:34;;;;;;;;;;;5.70;99.90;;;;;;4870242;29;19927;-64
2023/03/03 10:57:10;;;;;;;;;;;5.80;99.90;;;;;;4876532;29;20348;-64
2023/03/03 10:59:51;;;;;;;;;;;5.80;99.90;;;;;;4875062;29;19928;-64
2023/03/03 11:02:18;;;;;;;;;;;5.80;99.90;;;;;;4888114;29;19974;-64
2023/03/03 11:05:09;;;;;;;;;;;5.80;99.90;;;;;;4864710;29;19993;-63
2023/03/03 11:07:45;;;;;;;;;;;5.90;99.90;;;;;;4878396;29;20023;-64
2023/03/03 11:10:23;;;;;;;;;;;6.00;99.90;;;;;;4862442;29;20431;-64
2023/03/03 11:13:02;;;;;;;;;;;6.00;99.90;;;;;;4887459;29;19927;-64
2023/03/03 11:15:48;;;;;;;;;;;6.10;99.90;;;;;;4872822;29;19928;-64
2023/03/03 11:18:20;;;;;;;;;;;6.10;99.90;;;;;;4874011;29;19928;-63
2023/03/03 11:21:05;;;;;;;;;;;6.20;99.90;;;;;;4876388;29;19997;-64
2023/03/03 11:24:08;;;;;;;;;;;6.20;99.90;;;;;;4877390;29;20293;-64
2023/03/03 11:26:51;;;;;;;;;;;6.40;99.90;;;;;;4899073;29;19928;-64
2023/03/03 11:29:24;;;;;;;;;;;6.40;99.90;;;;;;4869240;29;19931;-64
2023/03/03 11:32:01;;;;;;;;;;;6.50;99.90;;;;;;4863673;29;20300;-64
2023/03/03 11:34:46;;;;;;;;;;;6.50;99.90;;;;;;4885372;29;19934;-64
2023/03/03 11:37:27;;;;;;;;;;;6.50;99.90;;;;;;4874581;29;19988;-64
2023/03/03 11:40:01;;;;;;;;;;;6.70;99.90;;;;;;4865892;29;19935;-64
2023/03/03 11:42:39;;;;;;;;;;;6.70;99.90;;;;;;4873843;29;19928;-63
2023/03/03 11:45:16;;;;;;;;;;;6.80;99.90;;;;;;4854008;29;19928;-64
2023/03/03 11:47:55;;;;;;;;;;;6.80;99.90;;;;;;4874894;29;19928;-65
2023/03/03 11:50:31;;;;;;;;;;;6.80;99.90;;;;;;4867075;29;19928;-64
2023/03/03 11:53:09;;;;;;;;;;;6.80;99.90;;;;;;4875427;29;19928;-64
2023/03/03 11:55:43;;;;;;;;;;;6.80;99.90;;;;;;4876055;29;19955;-64
2023/03/03 11:58:27;;;;;;;;;;;7.00;99.90;;;;;;4869253;29;19985;-69
2023/03/03 12:01:16;;;;;;;;;;;7.00;99.90;;;;;;4872334;29;19963;-64
2023/03/03 12:03:52;;;;;;;;;;;7.10;99.90;;;;;;4874017;29;19928;-63
2023/03/03 12:06:19;;;;;;;;;;;7.00;99.90;;;;;;4868221;29;19928;-64
2023/03/03 12:09:14;;;;;;;;;;;7.00;99.90;;;;;;4876138;29;20145;-63
2023/03/03 12:11:54;;;;;;;;;;;7.00;99.90;;;;;;4872010;29;19939;-64
2023/03/03 12:14:35;;;;;;;;;;;7.00;99.90;;;;;;4862792;29;19952;-63
2023/03/03 12:17:18;;;;;;;;;;;7.10;99.90;;;;;;4874578;29;19932;-64
2023/03/03 12:19:59;;;;;;;;;;;7.20;99.90;;;;;;4874537;29;19928;-64
2023/03/03 12:22:40;;;;;;;;;;;7.10;99.90;;;;;;4869722;29;19928;-64
2023/03/03 12:25:11;;;;;;;;;;;7.10;99.90;;;;;;4869951;29;19936;-64
2023/03/03 12:27:57;;;;;;;;;;;7.10;99.90;;;;;;4869051;29;19936;-64
2023/03/03 12:30:27;;;;;;;;;;;7.10;99.90;;;;;;4875523;29;19951;-63
2023/03/03 12:33:00;;;;;;;;;;;7.20;99.90;;;;;;4870833;29;19929;-64
2023/03/03 12:35:40;;;;;;;;;;;7.20;99.90;;;;;;4874155;29;19936;-64
2023/03/03 12:38:15;;;;;;;;;;;7.30;99.90;;;;;;4871225;29;20672;-64
2023/03/03 12:40:56;;;;;;;;;;;7.30;99.90;;;;;;4875397;29;20393;-64
2023/03/03 12:43:31;;;;;;;;;;;7.30;99.90;;;;;;4862432;29;19980;-64
2023/03/03 12:46:10;;;;;;;;;;;7.40;99.90;;;;;;4868376;29;20431;-64
2023/03/03 12:48:43;;;;;;;;;;;7.40;99.90;;;;;;4854371;29;19936;-65
2023/03/03 12:51:35;;;;;;;;;;;7.50;99.90;;;;;;4872485;29;19956;-65
2023/03/03 12:54:17;;;;;;;;;;;7.50;99.90;;;;;;4870889;29;19947;-64
2023/03/03 12:56:47;;;;;;;;;;;7.60;99.90;;;;;;4869981;29;19935;-64
2023/03/03 12:59:23;;;;;;;;;;;7.60;99.90;;;;;;4869128;29;19935;-64
2023/03/03 13:02:10;;;;;;;;;;;7.60;99.90;;;;;;4860405;29;19932;-63
2023/03/03 13:04:52;;;;;;;;;;;7.50;99.90;;;;;;4887506;29;19935;-63
2023/03/03 13:07:32;;;;;;;;;;;7.50;99.90;;;;;;4866584;29;19928;-64
2023/03/03 13:10:05;;;;;;;;;;;7.60;99.90;;;;;;4866697;29;19928;-64
2023/03/03 13:12:49;;;;;;;;;;;7.60;99.90;;;;;;4871946;29;19983;-63
2023/03/03 13:15:34;;;;;;;;;;;7.70;99.90;;;;;;4872583;29;20394;-64
2023/03/03 13:18:06;;;;;;;;;;;7.80;99.90;;;;;;4869765;29;20366;-64
2023/03/03 13:20:44;;;;;;;;;;;8.00;99.90;;;;;;4872411;29;19939;-64
2023/03/03 13:23:38;;;;;;;;;;;8.00;99.90;;;;;;4870633;29;20019;-64
2023/03/03 13:26:15;;;;;;;;;;;8.10;99.90;;;;;;4865964;29;19928;-63
2023/03/03 13:28:57;;;;;;;;;;;8.10;99.90;;;;;;4869153;29;19932;-63
2023/03/03 13:31:39;;;;;;;;;;;8.10;99.90;;;;;;4872673;29;19928;-63
2023/03/03 13:34:16;;;;;;;;;;;8.10;99.90;;;;;;4878358;29;19939;-63
2023/03/03 13:36:51;;;;;;;;;;;8.00;99.90;;;;;;4870294;29;19928;-63
2023/03/03 13:39:26;;;;;;;;;;;8.00;99.90;;;;;;4869473;29;20309;-64
2023/03/03 13:41:58;;;;;;;;;;;8.10;99.90;;;;;;4874940;29;19936;-63
2023/03/03 13:44:35;;;;;;;;;;;8.20;99.90;;;;;;4856629;29;20355;-64
2023/03/03 13:47:20;;;;;;;;;;;8.20;99.90;;;;;;4873692;29;19980;-63
2023/03/03 13:50:01;;;;;;;;;;;8.30;99.90;;;;;;4872052;29;19935;-64
2023/03/03 13:52:47;;;;;;;;;;;8.30;99.90;;;;;;4872033;29;19934;-63
2023/03/03 13:55:19;;;;;;;;;;;8.30;99.90;;;;;;4869818;29;19927;-63
2023/03/03 13:58:09;;;;;;;;;;;8.40;99.90;;;;;;4871040;29;19928;-63
2023/03/03 14:00:51;;;;;;;;;;;8.60;99.90;;;;;;4866282;29;20539;-64
2023/03/03 14:03:26;;;;;;;;;;;8.60;99.90;;;;;;4879267;29;19979;-64
2023/03/03 14:06:07;;;;;;;;;;;8.70;99.90;;;;;;4871016;29;19932;-64
2023/03/03 14:08:42;;;;;;;;;;;8.80;99.90;;;;;;4873685;29;19968;-64
2023/03/03 14:11:22;;;;;;;;;;;8.80;99.90;;;;;;4875457;29;20469;-64
2023/03/03 14:13:59;;;;;;;;;;;8.90;99.90;;;;;;4876026;29;20400;-64
2023/03/03 14:16:32;;;;;;;;;;;8.90;99.90;;;;;;4871935;29;19928;-64
2023/03/03 14:19:12;;;;;;;;;;;8.90;99.90;;;;;;4859992;29;20000;-63
2023/03/03 14:21:50;;;;;;;;;;;8.90;99.90;;;;;;4871411;29;20413;-64
2023/03/03 14:24:25;;;;;;;;;;;8.90;99.90;;;;;;4869592;29;20417;-64
2023/03/03 14:26:58;;;;;;;;;;;8.90;99.90;;;;;;4874018;29;19935;-63
2023/03/03 14:29:31;;;;;;;;;;;9.10;99.90;;;;;;4875498;29;20420;-65
2023/03/03 14:32:20;;;;;;;;;;;9.20;99.90;;;;;;4875767;29;20667;-64
2023/03/03 14:34:56;;;;;;;;;;;9.30;99.90;;;;;;4879573;29;19932;-64
2023/03/03 14:37:41;;;;;;;;;;;9.50;99.90;;;;;;4876123;29;19932;-63
2023/03/03 14:40:21;;;;;;;;;;;9.60;99.90;;;;;;4879452;29;19932;-63
2023/03/03 14:42:53;;;;;;;;;;;9.80;99.90;;;;;;4891370;29;19934;-62
2023/03/03 14:45:29;;;;;;;;;;;10.00;99.90;;;;;;4872290;29;19932;-63
2023/03/03 14:48:17;;;;;;;;;;;10.00;99.90;;;;;;4876073;29;19962;-63
2023/03/03 14:50:55;;;;;;;;;;;10.00;99.90;;;;;;4873091;29;19935;-63
2023/03/03 14:53:34;;;;;;;;;;;9.80;99.90;;;;;;4876007;29;19934;-63
2023/03/03 14:56:15;;;;;;;;;;;9.70;99.90;;;;;;4875971;29;19932;-65
2023/03/03 14:58:47;;;;;;;;;;;9.60;99.90;;;;;;4877412;29;20389;-64
2023/03/03 15:01:22;;;;;;;;;;;9.70;99.90;;;;;;4861238;29;19932;-64
2023/03/03 15:03:58;;;;;;;;;;;9.70;99.90;;;;;;4875395;29;20022;-64
2023/03/03 15:06:39;;;;;;;;;;;9.80;99.90;;;;;;4874817;29;19931;-64
2023/03/03 15:09:32;;;;;;;;;;;9.80;99.90;;;;;;4884824;29;19932;-65
2023/03/03 15:12:24;;;;;;;;;;;9.90;99.90;;;;;;4874928;29;19928;-63
2023/03/03 15:15:05;;;;;;;;;;;10.00;99.90;;;;;;4873389;29;19936;-63
2023/03/03 15:17:32;;;;;;;;;;;10.00;99.90;;;;;;4873674;29;20417;-64